sensor_id;sensor_type;location;lat;lon;timestamp;P1;durP1;ratioP1;P2;durP2;ratioP2
12888;SDS011;56848;49.896;11.424;2023-01-04T05:01:22;28.20;;;12.65;;
12888;SDS011;56848;49.896;11.424;2023-01-04T05:03:48;31.27;;;13.53;;
12888;SDS011;56848;49.896;11.424;2023-01-04T05:06:14;28.20;;;13.90;;
12888;SDS011;56848;49.896;11.424;2023-01-04T05:08:39;23.43;;;11.40;;
12888;SDS011;56848;49.896;11.424;2023-01-04T05:11:05;19.27;;;8.53;;
12888;SDS011;56848;49.896;11.424;2023-01-04T05:13:32;28.08;;;12.75;;
12888;SDS011;56848;49.896;11.424;2023-01-04T05:15:58;8.67;;;5.07;;
12888;SDS011;56848;49.896;11.424;2023-01-04T05:18:23;22.27;;;12.10;;
12888;SDS011;56848;49.896;11.424;2023-01-04T05:20:49;21.63;;;10.03;;
12888;SDS011;56848;49.896;11.424;2023-01-04T05:23:16;21.20;;;11.07;;
12888;SDS011;56848;49.896;11.424;2023-01-04T05:25:43;19.63;;;10.15;;
12888;SDS011;56848;49.896;11.424;2023-01-04T05:28:09;18.13;;;5.80;;
12888;SDS011;56848;49.896;11.424;2023-01-04T05:30:35;11.17;;;5.10;;
12888;SDS011;56848;49.896;11.424;2023-01-04T05:33:20;8.90;;;4.68;;
12888;SDS011;56848;49.896;11.424;2023-01-04T05:35:47;16.35;;;8.18;;
12888;SDS011;56848;49.896;11.424;2023-01-04T05:38:13;8.50;;;4.97;;
12888;SDS011;56848;49.896;11.424;2023-01-04T05:40:39;18.63;;;9.10;;
12888;SDS011;56848;49.896;11.424;2023-01-04T05:43:05;20.93;;;9.90;;
12888;SDS011;56848;49.896;11.424;2023-01-04T05:45:30;14.60;;;8.53;;
12888;SDS011;56848;49.896;11.424;2023-01-04T05:47:56;15.77;;;8.37;;
12888;SDS011;56848;49.896;11.424;2023-01-04T05:50:22;16.60;;;8.87;;
12888;SDS011;56848;49.896;11.424;2023-01-04T05:52:48;13.27;;;6.43;;
12888;SDS011;56848;49.896;11.424;2023-01-04T05:55:15;7.32;;;5.35;;
12888;SDS011;56848;49.896;11.424;2023-01-04T05:57:40;10.07;;;5.03;;
12888;SDS011;56848;49.896;11.424;2023-01-04T06:00:07;16.57;;;8.73;;
12888;SDS011;56848;49.896;11.424;2023-01-04T06:02:33;8.52;;;5.43;;
12888;SDS011;56848;49.896;11.424;2023-01-04T06:04:59;12.80;;;5.40;;
12888;SDS011;56848;49.896;11.424;2023-01-04T06:07:25;15.37;;;7.50;;
12888;SDS011;56848;49.896;11.424;2023-01-04T06:09:51;7.65;;;4.47;;
12888;SDS011;56848;49.896;11.424;2023-01-04T06:12:17;11.30;;;6.40;;
12888;SDS011;56848;49.896;11.424;2023-01-04T06:14:43;13.47;;;6.67;;
12888;SDS011;56848;49.896;11.424;2023-01-04T06:17:08;12.83;;;5.50;;
12888;SDS011;56848;49.896;11.424;2023-01-04T06:19:34;8.03;;;4.37;;
12888;SDS011;56848;49.896;11.424;2023-01-04T06:22:00;22.40;;;10.63;;
12888;SDS011;56848;49.896;11.424;2023-01-04T06:24:25;17.40;;;9.13;;
12888;SDS011;56848;49.896;11.424;2023-01-04T06:26:51;14.73;;;7.73;;
12888;SDS011;56848;49.896;11.424;2023-01-04T06:29:16;9.40;;;6.23;;
12888;SDS011;56848;49.896;11.424;2023-01-04T06:31:42;14.57;;;7.70;;
12888;SDS011;56848;49.896;11.424;2023-01-04T06:34:11;13.30;;;5.60;;
12888;SDS011;56848;49.896;11.424;2023-01-04T06:36:37;12.18;;;6.07;;
12888;SDS011;56848;49.896;11.424;2023-01-04T06:39:03;7.83;;;3.43;;
12888;SDS011;56848;49.896;11.424;2023-01-04T06:41:29;6.93;;;3.65;;
12888;SDS011;56848;49.896;11.424;2023-01-04T06:43:54;9.90;;;5.67;;
12888;SDS011;56848;49.896;11.424;2023-01-04T06:46:20;12.73;;;7.03;;
12888;SDS011;56848;49.896;11.424;2023-01-04T06:48:45;10.50;;;6.30;;
12888;SDS011;56848;49.896;11.424;2023-01-04T06:51:11;11.27;;;4.50;;
12888;SDS011;56848;49.896;11.424;2023-01-04T06:53:37;11.53;;;5.30;;
12888;SDS011;56848;49.896;11.424;2023-01-04T06:56:03;14.77;;;6.87;;
12888;SDS011;56848;49.896;11.424;2023-01-04T06:58:29;15.20;;;7.80;;
12888;SDS011;56848;49.896;11.424;2023-01-04T07:00:54;10.97;;;6.40;;
12888;SDS011;56848;49.896;11.424;2023-01-04T07:03:20;17.17;;;7.10;;
12888;SDS011;56848;49.896;11.424;2023-01-04T07:05:46;11.77;;;6.67;;
12888;SDS011;56848;49.896;11.424;2023-01-04T07:08:12;10.90;;;6.37;;
12888;SDS011;56848;49.896;11.424;2023-01-04T07:10:38;15.10;;;5.97;;
12888;SDS011;56848;49.896;11.424;2023-01-04T07:13:04;10.05;;;5.25;;
12888;SDS011;56848;49.896;11.424;2023-01-04T07:15:30;11.77;;;4.87;;
12888;SDS011;56848;49.896;11.424;2023-01-04T07:17:56;13.53;;;5.23;;
12888;SDS011;56848;49.896;11.424;2023-01-04T07:20:22;17.67;;;7.17;;
12888;SDS011;56848;49.896;11.424;2023-01-04T07:22:47;16.77;;;7.37;;
12888;SDS011;56848;49.896;11.424;2023-01-04T07:25:13;9.37;;;5.27;;
12888;SDS011;56848;49.896;11.424;2023-01-04T07:27:38;5.73;;;3.50;;
12888;SDS011;56848;49.896;11.424;2023-01-04T07:30:04;7.77;;;4.87;;
12888;SDS011;56848;49.896;11.424;2023-01-04T07:32:30;11.07;;;6.37;;
12888;SDS011;56848;49.896;11.424;2023-01-04T07:34:56;12.87;;;6.93;;
12888;SDS011;56848;49.896;11.424;2023-01-04T07:37:22;9.57;;;5.00;;
12888;SDS011;56848;49.896;11.424;2023-01-04T07:39:47;17.40;;;8.50;;
12888;SDS011;56848;49.896;11.424;2023-01-04T07:42:13;17.50;;;9.33;;
12888;SDS011;56848;49.896;11.424;2023-01-04T07:44:39;11.23;;;6.17;;
12888;SDS011;56848;49.896;11.424;2023-01-04T07:47:05;17.07;;;8.93;;
12888;SDS011;56848;49.896;11.424;2023-01-04T07:49:30;13.63;;;5.60;;
12888;SDS011;56848;49.896;11.424;2023-01-04T07:51:56;10.00;;;4.60;;
12888;SDS011;56848;49.896;11.424;2023-01-04T07:54:22;11.07;;;4.47;;
12888;SDS011;56848;49.896;11.424;2023-01-04T07:56:48;9.57;;;6.03;;
12888;SDS011;56848;49.896;11.424;2023-01-04T07:59:15;16.10;;;7.23;;
12888;SDS011;56848;49.896;11.424;2023-01-04T08:01:42;15.07;;;8.17;;
12888;SDS011;56848;49.896;11.424;2023-01-04T08:04:09;13.17;;;7.30;;
12888;SDS011;56848;49.896;11.424;2023-01-04T08:06:35;13.23;;;6.67;;
12888;SDS011;56848;49.896;11.424;2023-01-04T08:09:02;17.50;;;7.97;;
12888;SDS011;56848;49.896;11.424;2023-01-04T08:11:29;10.27;;;5.13;;
12888;SDS011;56848;49.896;11.424;2023-01-04T08:13:55;8.13;;;4.50;;
12888;SDS011;56848;49.896;11.424;2023-01-04T08:16:23;15.77;;;5.47;;
12888;SDS011;56848;49.896;11.424;2023-01-04T08:18:52;7.40;;;4.10;;
12888;SDS011;56848;49.896;11.424;2023-01-04T08:21:18;12.80;;;6.53;;
12888;SDS011;56848;49.896;11.424;2023-01-04T08:23:44;13.23;;;7.70;;
12888;SDS011;56848;49.896;11.424;2023-01-04T08:26:11;9.80;;;4.10;;
12888;SDS011;56848;49.896;11.424;2023-01-04T08:28:38;6.50;;;3.43;;
12888;SDS011;56848;49.896;11.424;2023-01-04T08:31:12;11.03;;;6.13;;
12888;SDS011;56848;49.896;11.424;2023-01-04T08:33:39;7.27;;;3.80;;
12888;SDS011;56848;49.896;11.424;2023-01-04T08:36:10;14.67;;;8.30;;
12888;SDS011;56848;49.896;11.424;2023-01-04T08:38:40;6.40;;;3.13;;
12888;SDS011;56848;49.896;11.424;2023-01-04T08:41:06;6.20;;;3.77;;
12888;SDS011;56848;49.896;11.424;2023-01-04T08:43:31;10.03;;;5.70;;
12888;SDS011;56848;49.896;11.424;2023-01-04T08:45:57;18.63;;;7.93;;
12888;SDS011;56848;49.896;11.424;2023-01-04T08:48:23;23.80;;;12.87;;
12888;SDS011;56848;49.896;11.424;2023-01-04T08:50:48;4.93;;;3.53;;
12888;SDS011;56848;49.896;11.424;2023-01-04T08:53:14;4.33;;;3.93;;
12888;SDS011;56848;49.896;11.424;2023-01-04T08:55:39;6.63;;;4.20;;
12888;SDS011;56848;49.896;11.424;2023-01-04T08:58:12;14.60;;;4.73;;
12888;SDS011;56848;49.896;11.424;2023-01-04T09:00:39;8.27;;;5.30;;
12888;SDS011;56848;49.896;11.424;2023-01-04T09:03:04;11.10;;;5.50;;
12888;SDS011;56848;49.896;11.424;2023-01-04T09:05:30;7.37;;;4.00;;
12888;SDS011;56848;49.896;11.424;2023-01-04T09:07:57;4.57;;;3.80;;
12888;SDS011;56848;49.896;11.424;2023-01-04T09:10:23;9.80;;;4.60;;
12888;SDS011;56848;49.896;11.424;2023-01-04T09:12:49;10.70;;;5.63;;
12888;SDS011;56848;49.896;11.424;2023-01-04T09:15:15;7.57;;;4.53;;
12888;SDS011;56848;49.896;11.424;2023-01-04T09:17:41;7.60;;;4.30;;
12888;SDS011;56848;49.896;11.424;2023-01-04T09:20:07;7.70;;;4.90;;
12888;SDS011;56848;49.896;11.424;2023-01-04T09:22:32;8.70;;;5.00;;
12888;SDS011;56848;49.896;11.424;2023-01-04T09:24:58;12.33;;;5.93;;
12888;SDS011;56848;49.896;11.424;2023-01-04T09:27:24;11.77;;;4.10;;
12888;SDS011;56848;49.896;11.424;2023-01-04T09:29:49;7.60;;;4.80;;
12888;SDS011;56848;49.896;11.424;2023-01-04T09:32:15;3.37;;;2.47;;
12888;SDS011;56848;49.896;11.424;2023-01-04T09:34:41;4.43;;;2.97;;
12888;SDS011;56848;49.896;11.424;2023-01-04T09:37:06;5.77;;;3.27;;
12888;SDS011;56848;49.896;11.424;2023-01-04T09:39:32;5.60;;;3.80;;
12888;SDS011;56848;49.896;11.424;2023-01-04T09:42:01;5.23;;;2.50;;
12888;SDS011;56848;49.896;11.424;2023-01-04T09:44:35;5.80;;;3.70;;
12888;SDS011;56848;49.896;11.424;2023-01-04T09:47:06;7.90;;;4.10;;
12888;SDS011;56848;49.896;11.424;2023-01-04T09:49:44;5.70;;;4.40;;
12888;SDS011;56848;49.896;11.424;2023-01-04T09:55:27;5.30;;;3.50;;
12888;SDS011;56848;49.896;11.424;2023-01-04T09:58:00;5.23;;;2.90;;
12888;SDS011;56848;49.896;11.424;2023-01-04T10:00:34;2.70;;;2.50;;
12888;SDS011;56848;49.896;11.424;2023-01-04T10:03:09;3.83;;;3.20;;
12888;SDS011;56848;49.896;11.424;2023-01-04T10:05:39;5.60;;;3.17;;
12888;SDS011;56848;49.896;11.424;2023-01-04T10:08:11;11.90;;;4.57;;
12888;SDS011;56848;49.896;11.424;2023-01-04T10:22:21;3.27;;;2.53;;
12888;SDS011;56848;49.896;11.424;2023-01-04T10:33:47;7.30;;;3.93;;
12888;SDS011;56848;49.896;11.424;2023-01-04T10:36:22;5.70;;;2.97;;
12888;SDS011;56848;49.896;11.424;2023-01-04T10:39:05;5.67;;;3.60;;
12888;SDS011;56848;49.896;11.424;2023-01-04T10:41:40;6.37;;;3.67;;
12888;SDS011;56848;49.896;11.424;2023-01-04T10:44:49;7.37;;;3.90;;
12888;SDS011;56848;49.896;11.424;2023-01-04T10:47:18;2.67;;;1.93;;
12888;SDS011;56848;49.896;11.424;2023-01-04T10:49:51;5.23;;;3.00;;
12888;SDS011;56848;49.896;11.424;2023-01-04T10:54:50;2.90;;;2.60;;
12888;SDS011;56848;49.896;11.424;2023-01-04T10:57:41;4.93;;;2.80;;
12888;SDS011;56848;49.896;11.424;2023-01-04T11:00:22;8.20;;;4.00;;
12888;SDS011;56848;49.896;11.424;2023-01-04T11:06:20;3.80;;;2.90;;
12888;SDS011;56848;49.896;11.424;2023-01-04T11:11:35;2.90;;;1.80;;
12888;SDS011;56848;49.896;11.424;2023-01-04T11:14:06;3.90;;;2.10;;
12888;SDS011;56848;49.896;11.424;2023-01-04T11:16:31;2.60;;;1.83;;
12888;SDS011;56848;49.896;11.424;2023-01-04T11:18:57;4.40;;;3.00;;
12888;SDS011;56848;49.896;11.424;2023-01-04T11:21:25;7.07;;;2.77;;
12888;SDS011;56848;49.896;11.424;2023-01-04T11:23:57;4.33;;;2.60;;
12888;SDS011;56848;49.896;11.424;2023-01-04T11:26:29;4.37;;;2.73;;
12888;SDS011;56848;49.896;11.424;2023-01-04T11:28:59;3.30;;;2.37;;
12888;SDS011;56848;49.896;11.424;2023-01-04T11:34:04;2.30;;;1.80;;
12888;SDS011;56848;49.896;11.424;2023-01-04T11:38:56;3.53;;;2.33;;
12888;SDS011;56848;49.896;11.424;2023-01-04T11:41:22;3.70;;;3.10;;
12888;SDS011;56848;49.896;11.424;2023-01-04T11:44:04;4.63;;;2.83;;
12888;SDS011;56848;49.896;11.424;2023-01-04T11:46:31;1.23;;;1.13;;
12888;SDS011;56848;49.896;11.424;2023-01-04T11:48:58;7.30;;;2.70;;
12888;SDS011;56848;49.896;11.424;2023-01-04T11:54:09;3.90;;;2.43;;
12888;SDS011;56848;49.896;11.424;2023-01-04T11:57:07;2.93;;;2.17;;
12888;SDS011;56848;49.896;11.424;2023-01-04T11:59:34;1.17;;;1.07;;
12888;SDS011;56848;49.896;11.424;2023-01-04T12:02:10;4.50;;;2.17;;
12888;SDS011;56848;49.896;11.424;2023-01-04T12:04:48;2.50;;;1.67;;
12888;SDS011;56848;49.896;11.424;2023-01-04T12:09:47;2.27;;;1.87;;
12888;SDS011;56848;49.896;11.424;2023-01-04T12:12:13;6.47;;;2.27;;
12888;SDS011;56848;49.896;11.424;2023-01-04T12:14:39;6.90;;;2.27;;
12888;SDS011;56848;49.896;11.424;2023-01-04T12:19:45;1.80;;;1.70;;
12888;SDS011;56848;49.896;11.424;2023-01-04T12:25:26;2.67;;;1.73;;
12888;SDS011;56848;49.896;11.424;2023-01-04T12:30:59;2.00;;;1.87;;
12888;SDS011;56848;49.896;11.424;2023-01-04T12:33:44;1.87;;;1.50;;
12888;SDS011;56848;49.896;11.424;2023-01-04T12:47:01;8.73;;;1.83;;
12888;SDS011;56848;49.896;11.424;2023-01-04T12:52:44;2.67;;;1.80;;
12888;SDS011;56848;49.896;11.424;2023-01-04T12:57:58;1.80;;;1.50;;
12888;SDS011;56848;49.896;11.424;2023-01-04T13:08:28;3.57;;;1.70;;
12888;SDS011;56848;49.896;11.424;2023-01-04T13:11:00;5.80;;;2.20;;
12888;SDS011;56848;49.896;11.424;2023-01-04T13:13:45;2.43;;;1.40;;
12888;SDS011;56848;49.896;11.424;2023-01-04T13:16:37;1.70;;;1.50;;
12888;SDS011;56848;49.896;11.424;2023-01-04T13:19:28;1.50;;;1.23;;
12888;SDS011;56848;49.896;11.424;2023-01-04T13:21:55;1.60;;;1.50;;
12888;SDS011;56848;49.896;11.424;2023-01-04T13:24:23;2.53;;;1.40;;
12888;SDS011;56848;49.896;11.424;2023-01-04T13:26:54;2.80;;;1.40;;
12888;SDS011;56848;49.896;11.424;2023-01-04T13:31:48;2.03;;;1.43;;
12888;SDS011;56848;49.896;11.424;2023-01-04T13:39:26;4.57;;;1.40;;
12888;SDS011;56848;49.896;11.424;2023-01-04T13:41:53;4.40;;;1.30;;
12888;SDS011;56848;49.896;11.424;2023-01-04T13:44:25;1.80;;;1.17;;
12888;SDS011;56848;49.896;11.424;2023-01-04T13:47:06;0.97;;;0.97;;
12888;SDS011;56848;49.896;11.424;2023-01-04T13:49:35;0.93;;;0.90;;
12888;SDS011;56848;49.896;11.424;2023-01-04T13:52:21;1.30;;;1.20;;
12888;SDS011;56848;49.896;11.424;2023-01-04T13:54:48;1.00;;;1.00;;
12888;SDS011;56848;49.896;11.424;2023-01-04T13:57:14;1.50;;;1.40;;
12888;SDS011;56848;49.896;11.424;2023-01-04T13:59:45;1.80;;;1.10;;
12888;SDS011;56848;49.896;11.424;2023-01-04T14:02:15;1.10;;;1.00;;
12888;SDS011;56848;49.896;11.424;2023-01-04T14:04:43;3.67;;;1.17;;
12888;SDS011;56848;49.896;11.424;2023-01-04T14:07:10;2.80;;;1.40;;
12888;SDS011;56848;49.896;11.424;2023-01-04T14:09:46;1.30;;;1.20;;
12888;SDS011;56848;49.896;11.424;2023-01-04T14:12:17;0.70;;;0.70;;
12888;SDS011;56848;49.896;11.424;2023-01-04T14:17:28;1.63;;;0.80;;
12888;SDS011;56848;49.896;11.424;2023-01-04T14:25:29;1.73;;;1.07;;
12888;SDS011;56848;49.896;11.424;2023-01-04T14:30:43;1.87;;;1.40;;
12888;SDS011;56848;49.896;11.424;2023-01-04T14:35:42;1.40;;;1.30;;
12888;SDS011;56848;49.896;11.424;2023-01-04T14:38:18;1.13;;;1.13;;
12888;SDS011;56848;49.896;11.424;2023-01-04T14:40:43;2.30;;;1.10;;
12888;SDS011;56848;49.896;11.424;2023-01-04T14:45:59;2.10;;;1.20;;
12888;SDS011;56848;49.896;11.424;2023-01-04T14:48:25;1.37;;;1.27;;
12888;SDS011;56848;49.896;11.424;2023-01-04T14:50:52;2.10;;;1.47;;
12888;SDS011;56848;49.896;11.424;2023-01-04T14:53:17;2.70;;;1.80;;
12888;SDS011;56848;49.896;11.424;2023-01-04T14:55:45;4.50;;;1.90;;
12888;SDS011;56848;49.896;11.424;2023-01-04T14:58:11;6.90;;;2.97;;
12888;SDS011;56848;49.896;11.424;2023-01-04T15:00:36;3.70;;;2.83;;
12888;SDS011;56848;49.896;11.424;2023-01-04T15:03:02;6.07;;;1.13;;
12888;SDS011;56848;49.896;11.424;2023-01-04T15:05:27;3.97;;;2.97;;
12888;SDS011;56848;49.896;11.424;2023-01-04T15:07:53;9.70;;;3.10;;
12888;SDS011;56848;49.896;11.424;2023-01-04T15:10:26;1.67;;;1.57;;
12888;SDS011;56848;49.896;11.424;2023-01-04T15:12:53;2.23;;;1.50;;
12888;SDS011;56848;49.896;11.424;2023-01-04T15:15:21;1.27;;;1.20;;
12888;SDS011;56848;49.896;11.424;2023-01-04T15:17:47;1.90;;;1.80;;
12888;SDS011;56848;49.896;11.424;2023-01-04T15:20:12;5.37;;;2.47;;
12888;SDS011;56848;49.896;11.424;2023-01-04T15:22:38;2.50;;;2.30;;
12888;SDS011;56848;49.896;11.424;2023-01-04T15:25:05;1.70;;;1.60;;
12888;SDS011;56848;49.896;11.424;2023-01-04T15:27:32;1.70;;;1.60;;
12888;SDS011;56848;49.896;11.424;2023-01-04T15:29:57;1.50;;;1.40;;
12888;SDS011;56848;49.896;11.424;2023-01-04T15:32:23;2.63;;;1.60;;
12888;SDS011;56848;49.896;11.424;2023-01-04T15:34:48;1.60;;;1.50;;
12888;SDS011;56848;49.896;11.424;2023-01-04T15:37:15;3.33;;;2.00;;
12888;SDS011;56848;49.896;11.424;2023-01-04T15:39:41;7.13;;;4.20;;
12888;SDS011;56848;49.896;11.424;2023-01-04T15:42:08;16.97;;;8.13;;
12888;SDS011;56848;49.896;11.424;2023-01-04T15:44:53;3.03;;;2.60;;
12888;SDS011;56848;49.896;11.424;2023-01-04T15:47:19;2.63;;;1.97;;
12888;SDS011;56848;49.896;11.424;2023-01-04T15:49:45;2.20;;;2.00;;
12888;SDS011;56848;49.896;11.424;2023-01-04T15:52:11;3.73;;;3.40;;
12888;SDS011;56848;49.896;11.424;2023-01-04T15:54:36;1.37;;;1.20;;
12888;SDS011;56848;49.896;11.424;2023-01-04T15:57:02;1.90;;;1.80;;
12888;SDS011;56848;49.896;11.424;2023-01-04T15:59:27;2.70;;;2.10;;
12888;SDS011;56848;49.896;11.424;2023-01-04T16:01:53;2.60;;;2.20;;
12888;SDS011;56848;49.896;11.424;2023-01-04T16:04:19;1.50;;;1.40;;
12888;SDS011;56848;49.896;11.424;2023-01-04T16:06:44;2.10;;;1.90;;
12888;SDS011;56848;49.896;11.424;2023-01-04T16:09:10;1.90;;;1.80;;
12888;SDS011;56848;49.896;11.424;2023-01-04T16:11:35;1.13;;;1.13;;
12888;SDS011;56848;49.896;11.424;2023-01-04T16:14:21;1.30;;;1.20;;
12888;SDS011;56848;49.896;11.424;2023-01-04T16:16:47;1.63;;;1.53;;
12888;SDS011;56848;49.896;11.424;2023-01-04T16:19:12;2.00;;;1.90;;
12888;SDS011;56848;49.896;11.424;2023-01-04T16:21:38;2.33;;;1.87;;
12888;SDS011;56848;49.896;11.424;2023-01-04T16:24:03;11.80;;;1.67;;
12888;SDS011;56848;49.896;11.424;2023-01-04T16:29:30;2.93;;;2.27;;
12888;SDS011;56848;49.896;11.424;2023-01-04T16:31:56;1.70;;;1.60;;
12888;SDS011;56848;49.896;11.424;2023-01-04T16:34:22;2.27;;;1.53;;
12888;SDS011;56848;49.896;11.424;2023-01-04T16:36:48;2.70;;;1.83;;
12888;SDS011;56848;49.896;11.424;2023-01-04T16:39:14;6.53;;;1.50;;
12888;SDS011;56848;49.896;11.424;2023-01-04T16:41:39;1.33;;;1.33;;
12888;SDS011;56848;49.896;11.424;2023-01-04T16:44:05;1.53;;;1.43;;
12888;SDS011;56848;49.896;11.424;2023-01-04T16:46:32;1.50;;;1.40;;
12888;SDS011;56848;49.896;11.424;2023-01-04T16:49:06;5.03;;;1.20;;
12888;SDS011;56848;49.896;11.424;2023-01-04T16:51:34;1.27;;;1.00;;
12888;SDS011;56848;49.896;11.424;2023-01-04T16:54:02;1.47;;;1.37;;
12888;SDS011;56848;49.896;11.424;2023-01-04T16:56:29;1.40;;;1.40;;
12888;SDS011;56848;49.896;11.424;2023-01-04T16:58:56;2.10;;;1.37;;
12888;SDS011;56848;49.896;11.424;2023-01-04T17:01:22;1.70;;;1.60;;
12888;SDS011;56848;49.896;11.424;2023-01-04T17:03:49;1.63;;;1.53;;
12888;SDS011;56848;49.896;11.424;2023-01-04T17:06:21;1.50;;;1.40;;
12888;SDS011;56848;49.896;11.424;2023-01-04T17:08:48;1.30;;;1.30;;
12888;SDS011;56848;49.896;11.424;2023-01-04T17:11:16;1.73;;;1.63;;
12888;SDS011;56848;49.896;11.424;2023-01-04T17:13:43;1.97;;;1.87;;
12888;SDS011;56848;49.896;11.424;2023-01-04T17:18:41;0.90;;;0.90;;
12888;SDS011;56848;49.896;11.424;2023-01-04T17:21:09;1.63;;;1.53;;
12888;SDS011;56848;49.896;11.424;2023-01-04T17:23:37;1.70;;;1.67;;
12888;SDS011;56848;49.896;11.424;2023-01-04T17:26:06;1.60;;;1.50;;
12888;SDS011;56848;49.896;11.424;2023-01-04T17:28:34;1.67;;;1.57;;
12888;SDS011;56848;49.896;11.424;2023-01-04T17:31:08;1.60;;;1.53;;
12888;SDS011;56848;49.896;11.424;2023-01-04T17:33:36;2.97;;;1.50;;
12888;SDS011;56848;49.896;11.424;2023-01-04T17:36:03;1.80;;;1.70;;
12888;SDS011;56848;49.896;11.424;2023-01-04T17:38:30;2.50;;;2.03;;
12888;SDS011;56848;49.896;11.424;2023-01-04T17:41:04;1.50;;;1.40;;
12888;SDS011;56848;49.896;11.424;2023-01-04T17:43:45;2.70;;;1.50;;
12888;SDS011;56848;49.896;11.424;2023-01-04T17:46:13;1.50;;;1.40;;
12888;SDS011;56848;49.896;11.424;2023-01-04T17:48:42;1.77;;;1.67;;
12888;SDS011;56848;49.896;11.424;2023-01-04T17:53:45;1.97;;;1.87;;
12888;SDS011;56848;49.896;11.424;2023-01-04T17:56:15;1.93;;;1.83;;
12888;SDS011;56848;49.896;11.424;2023-01-04T17:58:42;2.93;;;2.73;;
12888;SDS011;56848;49.896;11.424;2023-01-04T18:01:09;2.10;;;1.53;;
12888;SDS011;56848;49.896;11.424;2023-01-04T18:03:41;1.57;;;1.47;;
12888;SDS011;56848;49.896;11.424;2023-01-04T18:06:09;1.40;;;1.30;;
12888;SDS011;56848;49.896;11.424;2023-01-04T18:08:34;1.40;;;1.30;;
12888;SDS011;56848;49.896;11.424;2023-01-04T18:11:00;3.50;;;1.33;;
12888;SDS011;56848;49.896;11.424;2023-01-04T18:13:30;1.47;;;1.47;;
12888;SDS011;56848;49.896;11.424;2023-01-04T18:15:56;3.50;;;1.50;;
12888;SDS011;56848;49.896;11.424;2023-01-04T18:18:22;2.40;;;1.47;;
12888;SDS011;56848;49.896;11.424;2023-01-04T18:20:48;2.03;;;1.93;;
12888;SDS011;56848;49.896;11.424;2023-01-04T18:23:14;4.77;;;1.90;;
12888;SDS011;56848;49.896;11.424;2023-01-04T18:25:39;1.83;;;1.73;;
12888;SDS011;56848;49.896;11.424;2023-01-04T18:28:05;1.63;;;1.53;;
12888;SDS011;56848;49.896;11.424;2023-01-04T18:30:31;2.10;;;2.00;;
12888;SDS011;56848;49.896;11.424;2023-01-04T18:32:58;1.60;;;1.60;;
12888;SDS011;56848;49.896;11.424;2023-01-04T18:35:24;1.83;;;1.60;;
12888;SDS011;56848;49.896;11.424;2023-01-04T18:37:50;1.40;;;1.30;;
12888;SDS011;56848;49.896;11.424;2023-01-04T18:40:15;1.70;;;1.60;;
12888;SDS011;56848;49.896;11.424;2023-01-04T18:42:44;1.80;;;1.70;;
12888;SDS011;56848;49.896;11.424;2023-01-04T18:45:11;7.50;;;2.00;;
12888;SDS011;56848;49.896;11.424;2023-01-04T18:47:36;2.03;;;1.83;;
12888;SDS011;56848;49.896;11.424;2023-01-04T18:50:02;1.00;;;1.00;;
12888;SDS011;56848;49.896;11.424;2023-01-04T18:52:28;1.53;;;1.53;;
12888;SDS011;56848;49.896;11.424;2023-01-04T18:54:53;2.00;;;1.90;;
12888;SDS011;56848;49.896;11.424;2023-01-04T18:57:19;5.23;;;2.27;;
12888;SDS011;56848;49.896;11.424;2023-01-04T18:59:44;1.77;;;1.60;;
12888;SDS011;56848;49.896;11.424;2023-01-04T19:02:14;2.30;;;2.03;;
12888;SDS011;56848;49.896;11.424;2023-01-04T19:04:41;2.53;;;2.33;;
12888;SDS011;56848;49.896;11.424;2023-01-04T19:07:07;3.60;;;1.50;;
12888;SDS011;56848;49.896;11.424;2023-01-04T19:09:33;1.83;;;1.70;;
12888;SDS011;56848;49.896;11.424;2023-01-04T19:11:58;2.60;;;2.40;;
12888;SDS011;56848;49.896;11.424;2023-01-04T19:14:24;2.23;;;2.03;;
12888;SDS011;56848;49.896;11.424;2023-01-04T19:16:49;2.83;;;2.50;;
12888;SDS011;56848;49.896;11.424;2023-01-04T19:19:16;3.13;;;2.40;;
12888;SDS011;56848;49.896;11.424;2023-01-04T19:21:42;3.13;;;2.37;;
12888;SDS011;56848;49.896;11.424;2023-01-04T19:24:08;10.40;;;1.50;;
12888;SDS011;56848;49.896;11.424;2023-01-04T19:26:33;2.20;;;2.10;;
12888;SDS011;56848;49.896;11.424;2023-01-04T19:28:59;1.90;;;1.80;;
12888;SDS011;56848;49.896;11.424;2023-01-04T19:31:24;2.00;;;1.70;;
12888;SDS011;56848;49.896;11.424;2023-01-04T19:33:50;2.37;;;2.20;;
12888;SDS011;56848;49.896;11.424;2023-01-04T19:36:17;3.30;;;2.33;;
12888;SDS011;56848;49.896;11.424;2023-01-04T19:38:43;2.27;;;2.17;;
12888;SDS011;56848;49.896;11.424;2023-01-04T19:41:13;2.27;;;2.07;;
12888;SDS011;56848;49.896;11.424;2023-01-04T19:43:42;3.10;;;2.07;;
12888;SDS011;56848;49.896;11.424;2023-01-04T19:46:08;2.70;;;2.50;;
12888;SDS011;56848;49.896;11.424;2023-01-04T19:48:35;3.00;;;2.80;;
12888;SDS011;56848;49.896;11.424;2023-01-04T19:51:04;3.30;;;3.00;;
12888;SDS011;56848;49.896;11.424;2023-01-04T19:53:31;2.10;;;2.00;;
12888;SDS011;56848;49.896;11.424;2023-01-04T19:55:57;8.33;;;2.83;;
12888;SDS011;56848;49.896;11.424;2023-01-04T19:58:23;3.20;;;2.07;;
12888;SDS011;56848;49.896;11.424;2023-01-04T20:00:48;2.40;;;2.30;;
12888;SDS011;56848;49.896;11.424;2023-01-04T20:03:14;2.33;;;2.20;;
12888;SDS011;56848;49.896;11.424;2023-01-04T20:05:39;2.43;;;2.33;;
12888;SDS011;56848;49.896;11.424;2023-01-04T20:08:05;1.97;;;1.87;;
12888;SDS011;56848;49.896;11.424;2023-01-04T20:10:31;2.50;;;2.30;;
12888;SDS011;56848;49.896;11.424;2023-01-04T20:12:57;1.80;;;1.70;;
12888;SDS011;56848;49.896;11.424;2023-01-04T20:15:23;2.80;;;2.60;;
12888;SDS011;56848;49.896;11.424;2023-01-04T20:17:48;2.40;;;2.30;;
12888;SDS011;56848;49.896;11.424;2023-01-04T20:20:14;2.90;;;2.70;;
12888;SDS011;56848;49.896;11.424;2023-01-04T20:22:41;2.43;;;1.80;;
12888;SDS011;56848;49.896;11.424;2023-01-04T20:25:07;2.80;;;2.57;;
12888;SDS011;56848;49.896;11.424;2023-01-04T20:27:33;1.60;;;1.50;;
12888;SDS011;56848;49.896;11.424;2023-01-04T20:29:59;2.20;;;2.10;;
12888;SDS011;56848;49.896;11.424;2023-01-04T20:32:24;2.70;;;2.50;;
12888;SDS011;56848;49.896;11.424;2023-01-04T20:34:50;2.40;;;2.30;;
12888;SDS011;56848;49.896;11.424;2023-01-04T20:37:15;2.67;;;2.47;;
12888;SDS011;56848;49.896;11.424;2023-01-04T20:39:41;3.00;;;2.80;;
12888;SDS011;56848;49.896;11.424;2023-01-04T20:42:07;9.00;;;2.60;;
12888;SDS011;56848;49.896;11.424;2023-01-04T20:44:51;2.40;;;2.30;;
12888;SDS011;56848;49.896;11.424;2023-01-04T20:47:17;5.87;;;3.40;;
12888;SDS011;56848;49.896;11.424;2023-01-04T20:49:42;3.77;;;3.37;;
12888;SDS011;56848;49.896;11.424;2023-01-04T20:52:10;2.73;;;2.57;;
12888;SDS011;56848;49.896;11.424;2023-01-04T20:54:35;4.10;;;3.67;;
12888;SDS011;56848;49.896;11.424;2023-01-04T20:57:01;2.53;;;2.37;;
12888;SDS011;56848;49.896;11.424;2023-01-04T20:59:26;2.90;;;2.70;;
12888;SDS011;56848;49.896;11.424;2023-01-04T21:01:52;3.30;;;3.00;;
12888;SDS011;56848;49.896;11.424;2023-01-04T21:04:18;2.60;;;2.40;;
12888;SDS011;56848;49.896;11.424;2023-01-04T21:06:43;2.30;;;2.20;;
12888;SDS011;56848;49.896;11.424;2023-01-04T21:09:09;2.77;;;2.57;;
12888;SDS011;56848;49.896;11.424;2023-01-04T21:11:34;2.20;;;2.00;;
12888;SDS011;56848;49.896;11.424;2023-01-04T21:14:00;2.20;;;2.10;;
12888;SDS011;56848;49.896;11.424;2023-01-04T21:16:26;2.07;;;1.97;;
12888;SDS011;56848;49.896;11.424;2023-01-04T21:18:52;1.77;;;1.67;;
12888;SDS011;56848;49.896;11.424;2023-01-04T21:21:17;2.17;;;2.07;;
12888;SDS011;56848;49.896;11.424;2023-01-04T21:23:44;5.53;;;3.63;;